River Globe — V7NL8 — position and weather

sailwx.info

Track history (hours):
 
Tides and Currents Weather Stations Pressure Air Temp Water Temp Dewpoint Dewpoint Depression Visibility Wind Speed Wind Dir Waves Ship Positions

River Globe

Last reported at 2017-Sep-20 23:07 UTC. Time now 2017-Sep-23 23:56 UTC.
Position N 31°12' E 032°20'.

Length 190 m; draft 12.7 m.

Type: Cargo ship. MMSI: 538002977.

Date/timePositionNaut miles runAvg speedWind from/ knotsBaromVisibWave heightAir tempDewpointWater temp
2017-Sep-20 23:07N 31°12' E 032°20'1 6.1
2017-Sep-20 22:59N 31°13' E 032°20'  
2017-Sep-18 14:12N 37°24' E 025°55'212.0
2017-Sep-18 14:01N 37°26' E 025°54'611.2
2017-Sep-18 13:31N 37°31' E 025°53'94 5.7
2017-Sep-17 21:09N 39°05' E 025°50'212.6
2017-Sep-17 20:58N 39°07' E 025°49'3812.2
2017-Sep-17 17:52N 39°44' E 025°45'611.9
2017-Sep-17 17:22N 39°50' E 025°46'513.3
2017-Sep-17 17:01N 39°54' E 025°50'713.3
2017-Sep-17 16:28N 39°59' E 025°57'612.6
2017-Sep-17 15:59N 40°01' E 026°05'611.5
2017-Sep-17 15:26N 40°02' E 026°13'1112.1
2017-Sep-17 14:31N 40°10' E 026°23'012.5
2017-Sep-17 14:31N 40°10' E 026°23'158 4.2
2017-Sep-16 01:02N 41°32' E 029°21'212.5
2017-Sep-16 00:50N 41°34' E 029°24'412.4
2017-Sep-16 00:30N 41°37' E 029°27'612.3
2017-Sep-16 00:00N 41°42' E 029°33'612.2
2017-Sep-15 23:30N 41°46' E 029°38'612.2
2017-Sep-15 22:59N 41°51' E 029°43'912.2
2017-Sep-15 22:16N 41°58' E 029°51'312.2
2017-Sep-15 22:00N 42°00' E 029°54'612.2
2017-Sep-15 21:30N 42°04' E 029°60'612.4
2017-Sep-15 21:00N 42°07' E 030°07'612.5
2017-Sep-15 20:30N 42°10' E 030°15'612.3
2017-Sep-15 20:00N 42°13' E 030°22'5012.6
2017-Sep-15 16:00N 42°34' E 031°24'1212.5
2017-Sep-15 15:00N 42°38' E 031°40'5512.2
2017-Sep-15 10:29N 43°02' E 032°48'612.3
2017-Sep-15 09:59N 43°04' E 032°56'612.3
2017-Sep-15 09:30N 43°07' E 033°03'4312.2
2017-Sep-15 05:58N 43°25' E 033°57'8612.7
2017-Sep-14 23:12N 44°01' E 035°45'70 2.0
2017-Sep-13 11:32N 45°02' E 036°33'0 0.0
2017-Sep-13 11:26N 45°02' E 036°33'0 0.0
2017-Sep-13 10:59N 45°02' E 036°33'0 0.0
2017-Sep-13 10:29N 45°02' E 036°33'0 0.0
2017-Sep-13 09:59N 45°02' E 036°33'0 0.0
2017-Sep-12 03:53N 45°02' E 036°33'0 0.0
2017-Sep-12 02:17N 45°02' E 036°33'0 0.0
2017-Sep-11 21:41N 45°02' E 036°33'0 0.1
2017-Sep-11 19:53N 45°02' E 036°33'0 0.0
2017-Sep-11 12:41N 45°02' E 036°33'0 0.0
2017-Sep-11 12:14N 45°02' E 036°33'0 0.0
2017-Sep-11 11:53N 45°02' E 036°33'  
Track history (hours):
 
Tides and Currents Weather Stations Pressure Air Temp Water Temp Dewpoint Dewpoint Depression Visibility Wind Speed Wind Dir Waves Ship Positions

River Globe

Last reported at 2017-Sep-20 23:07 UTC. Time now 2017-Sep-23 23:56 UTC.
Position N 31°12' E 032°20'.

Length 190 m; draft 12.7 m.

Type: Cargo ship. MMSI: 538002977.

Date/timePositionNaut miles runAvg speedWind from/ knotsBaromVisibWave heightAir tempDewpointWater temp
2017-Sep-20 23:07N 31°12' E 032°20'1 6.1
2017-Sep-20 22:59N 31°13' E 032°20'  
2017-Sep-18 14:12N 37°24' E 025°55'212.0
2017-Sep-18 14:01N 37°26' E 025°54'611.2
2017-Sep-18 13:31N 37°31' E 025°53'94 5.7
2017-Sep-17 21:09N 39°05' E 025°50'212.6
2017-Sep-17 20:58N 39°07' E 025°49'3812.2
2017-Sep-17 17:52N 39°44' E 025°45'611.9
2017-Sep-17 17:22N 39°50' E 025°46'513.3
2017-Sep-17 17:01N 39°54' E 025°50'713.3
2017-Sep-17 16:28N 39°59' E 025°57'612.6
2017-Sep-17 15:59N 40°01' E 026°05'611.5
2017-Sep-17 15:26N 40°02' E 026°13'1112.1
2017-Sep-17 14:31N 40°10' E 026°23'012.5
2017-Sep-17 14:31N 40°10' E 026°23'158 4.2
2017-Sep-16 01:02N 41°32' E 029°21'212.5
2017-Sep-16 00:50N 41°34' E 029°24'412.4
2017-Sep-16 00:30N 41°37' E 029°27'612.3
2017-Sep-16 00:00N 41°42' E 029°33'612.2
2017-Sep-15 23:30N 41°46' E 029°38'612.2
2017-Sep-15 22:59N 41°51' E 029°43'912.2
2017-Sep-15 22:16N 41°58' E 029°51'312.2
2017-Sep-15 22:00N 42°00' E 029°54'612.2
2017-Sep-15 21:30N 42°04' E 029°60'612.4
2017-Sep-15 21:00N 42°07' E 030°07'612.5
2017-Sep-15 20:30N 42°10' E 030°15'612.3
2017-Sep-15 20:00N 42°13' E 030°22'5012.6
2017-Sep-15 16:00N 42°34' E 031°24'1212.5
2017-Sep-15 15:00N 42°38' E 031°40'5512.2
2017-Sep-15 10:29N 43°02' E 032°48'612.3
2017-Sep-15 09:59N 43°04' E 032°56'612.3
2017-Sep-15 09:30N 43°07' E 033°03'4312.2
2017-Sep-15 05:58N 43°25' E 033°57'8612.7
2017-Sep-14 23:12N 44°01' E 035°45'70 2.0
2017-Sep-13 11:32N 45°02' E 036°33'0 0.0
2017-Sep-13 11:26N 45°02' E 036°33'0 0.0
2017-Sep-13 10:59N 45°02' E 036°33'0 0.0
2017-Sep-13 10:29N 45°02' E 036°33'0 0.0
2017-Sep-13 09:59N 45°02' E 036°33'0 0.0
2017-Sep-12 03:53N 45°02' E 036°33'0 0.0
2017-Sep-12 02:17N 45°02' E 036°33'0 0.0
2017-Sep-11 21:41N 45°02' E 036°33'0 0.1
2017-Sep-11 19:53N 45°02' E 036°33'0 0.0
2017-Sep-11 12:41N 45°02' E 036°33'0 0.0
2017-Sep-11 12:14N 45°02' E 036°33'0 0.0
2017-Sep-11 11:53N 45°02' E 036°33'  

Dump ship's entire track history